sensor_id;sensor_type;location;lat;lon;timestamp;temperature;humidity
18047;DHT22;9148;51.454;13.862;2024-02-21T00:02:06;8.20;99.90
18047;DHT22;9148;51.454;13.862;2024-02-21T00:04:31;8.20;99.90
18047;DHT22;9148;51.454;13.862;2024-02-21T00:06:57;8.20;99.90
18047;DHT22;9148;51.454;13.862;2024-02-21T00:09:23;8.20;99.90
18047;DHT22;9148;51.454;13.862;2024-02-21T00:11:48;8.20;99.90
18047;DHT22;9148;51.454;13.862;2024-02-21T00:14:14;8.30;99.90
18047;DHT22;9148;51.454;13.862;2024-02-21T00:16:39;8.20;99.90
18047;DHT22;9148;51.454;13.862;2024-02-21T00:19:05;8.20;99.90
18047;DHT22;9148;51.454;13.862;2024-02-21T00:21:31;8.20;99.90
18047;DHT22;9148;51.454;13.862;2024-02-21T00:23:56;8.20;99.90
18047;DHT22;9148;51.454;13.862;2024-02-21T00:26:22;8.20;99.90
18047;DHT22;9148;51.454;13.862;2024-02-21T00:28:48;8.20;99.90
18047;DHT22;9148;51.454;13.862;2024-02-21T00:31:14;8.30;99.90
18047;DHT22;9148;51.454;13.862;2024-02-21T00:33:39;8.20;99.90
18047;DHT22;9148;51.454;13.862;2024-02-21T00:36:05;8.30;99.90
18047;DHT22;9148;51.454;13.862;2024-02-21T00:38:31;8.30;99.90
18047;DHT22;9148;51.454;13.862;2024-02-21T00:40:56;8.30;99.90
18047;DHT22;9148;51.454;13.862;2024-02-21T00:43:22;8.30;99.90
18047;DHT22;9148;51.454;13.862;2024-02-21T00:45:49;8.30;99.90
18047;DHT22;9148;51.454;13.862;2024-02-21T00:48:15;8.20;99.90
18047;DHT22;9148;51.454;13.862;2024-02-21T00:50:41;8.20;99.90
18047;DHT22;9148;51.454;13.862;2024-02-21T00:53:06;8.30;99.90
18047;DHT22;9148;51.454;13.862;2024-02-21T00:55:32;8.30;99.90
18047;DHT22;9148;51.454;13.862;2024-02-21T00:57:58;8.20;99.90
18047;DHT22;9148;51.454;13.862;2024-02-21T01:00:23;8.20;99.90
18047;DHT22;9148;51.454;13.862;2024-02-21T01:02:49;8.30;99.90
18047;DHT22;9148;51.454;13.862;2024-02-21T01:05:15;8.20;99.90
18047;DHT22;9148;51.454;13.862;2024-02-21T01:07:40;8.10;99.90
18047;DHT22;9148;51.454;13.862;2024-02-21T01:10:06;8.20;99.90
18047;DHT22;9148;51.454;13.862;2024-02-21T01:12:32;8.10;99.90
18047;DHT22;9148;51.454;13.862;2024-02-21T01:14:58;8.10;99.90
18047;DHT22;9148;51.454;13.862;2024-02-21T01:17:24;8.20;99.90
18047;DHT22;9148;51.454;13.862;2024-02-21T01:19:49;8.10;99.90
18047;DHT22;9148;51.454;13.862;2024-02-21T01:22:15;8.10;99.90
18047;DHT22;9148;51.454;13.862;2024-02-21T01:24:41;8.10;99.90
18047;DHT22;9148;51.454;13.862;2024-02-21T01:27:07;8.00;99.90
18047;DHT22;9148;51.454;13.862;2024-02-21T01:29:33;8.10;99.90
18047;DHT22;9148;51.454;13.862;2024-02-21T01:31:58;8.00;99.90
18047;DHT22;9148;51.454;13.862;2024-02-21T01:34:24;8.00;99.90
18047;DHT22;9148;51.454;13.862;2024-02-21T01:36:50;8.00;99.90
18047;DHT22;9148;51.454;13.862;2024-02-21T01:39:16;8.00;99.90
18047;DHT22;9148;51.454;13.862;2024-02-21T01:41:41;8.00;99.90
18047;DHT22;9148;51.454;13.862;2024-02-21T01:44:07;8.00;99.90
18047;DHT22;9148;51.454;13.862;2024-02-21T01:46:33;8.00;99.90
18047;DHT22;9148;51.454;13.862;2024-02-21T01:48:59;8.00;99.90
18047;DHT22;9148;51.454;13.862;2024-02-21T01:51:25;8.00;99.90
18047;DHT22;9148;51.454;13.862;2024-02-21T01:53:58;8.00;99.90
18047;DHT22;9148;51.454;13.862;2024-02-21T01:56:24;8.00;99.90
18047;DHT22;9148;51.454;13.862;2024-02-21T01:58:51;8.00;99.90
18047;DHT22;9148;51.454;13.862;2024-02-21T02:01:17;8.00;99.90
18047;DHT22;9148;51.454;13.862;2024-02-21T02:03:45;8.00;99.90
18047;DHT22;9148;51.454;13.862;2024-02-21T02:06:10;8.00;99.90
18047;DHT22;9148;51.454;13.862;2024-02-21T02:08:36;8.00;99.90
18047;DHT22;9148;51.454;13.862;2024-02-21T02:11:02;8.00;99.90
18047;DHT22;9148;51.454;13.862;2024-02-21T02:13:28;8.00;99.90
18047;DHT22;9148;51.454;13.862;2024-02-21T02:15:54;7.90;99.90
18047;DHT22;9148;51.454;13.862;2024-02-21T02:18:20;8.00;99.90
18047;DHT22;9148;51.454;13.862;2024-02-21T02:20:46;8.00;99.90
18047;DHT22;9148;51.454;13.862;2024-02-21T02:25:57;8.10;99.90
18047;DHT22;9148;51.454;13.862;2024-02-21T02:28:23;8.10;99.90
18047;DHT22;9148;51.454;13.862;2024-02-21T02:30:49;8.10;99.90
18047;DHT22;9148;51.454;13.862;2024-02-21T02:33:15;7.90;99.90
18047;DHT22;9148;51.454;13.862;2024-02-21T02:35:43;8.10;99.90
18047;DHT22;9148;51.454;13.862;2024-02-21T02:38:08;8.10;99.90
18047;DHT22;9148;51.454;13.862;2024-02-21T02:40:35;8.10;99.90
18047;DHT22;9148;51.454;13.862;2024-02-21T02:43:01;8.10;99.90
18047;DHT22;9148;51.454;13.862;2024-02-21T02:45:27;8.10;99.90
18047;DHT22;9148;51.454;13.862;2024-02-21T02:47:53;8.10;99.90
18047;DHT22;9148;51.454;13.862;2024-02-21T02:50:19;8.10;99.90
18047;DHT22;9148;51.454;13.862;2024-02-21T02:52:45;8.10;99.90
18047;DHT22;9148;51.454;13.862;2024-02-21T02:55:11;8.10;99.90
18047;DHT22;9148;51.454;13.862;2024-02-21T02:57:37;8.10;99.90
18047;DHT22;9148;51.454;13.862;2024-02-21T03:00:04;8.10;99.90
18047;DHT22;9148;51.454;13.862;2024-02-21T03:02:32;7.50;99.90
18047;DHT22;9148;51.454;13.862;2024-02-21T03:04:57;8.10;99.90
18047;DHT22;9148;51.454;13.862;2024-02-21T03:07:24;8.10;99.90
18047;DHT22;9148;51.454;13.862;2024-02-21T03:09:50;8.10;99.90
18047;DHT22;9148;51.454;13.862;2024-02-21T03:12:16;8.20;99.90
18047;DHT22;9148;51.454;13.862;2024-02-21T03:14:50;8.10;99.90
18047;DHT22;9148;51.454;13.862;2024-02-21T03:17:16;8.10;99.90
18047;DHT22;9148;51.454;13.862;2024-02-21T03:19:42;8.10;99.90
18047;DHT22;9148;51.454;13.862;2024-02-21T03:22:07;8.00;99.90
18047;DHT22;9148;51.454;13.862;2024-02-21T03:24:33;8.00;99.90
18047;DHT22;9148;51.454;13.862;2024-02-21T03:26:59;8.00;99.90
18047;DHT22;9148;51.454;13.862;2024-02-21T03:29:25;8.00;99.90
18047;DHT22;9148;51.454;13.862;2024-02-21T03:31:51;8.00;99.90
18047;DHT22;9148;51.454;13.862;2024-02-21T03:34:16;8.00;99.90
18047;DHT22;9148;51.454;13.862;2024-02-21T03:36:42;8.00;99.90
18047;DHT22;9148;51.454;13.862;2024-02-21T03:39:08;8.00;99.90
18047;DHT22;9148;51.454;13.862;2024-02-21T03:41:35;7.70;99.90
18047;DHT22;9148;51.454;13.862;2024-02-21T03:44:01;8.00;99.90
18047;DHT22;9148;51.454;13.862;2024-02-21T03:46:27;8.00;99.90
18047;DHT22;9148;51.454;13.862;2024-02-21T03:48:53;8.10;99.90
18047;DHT22;9148;51.454;13.862;2024-02-21T03:51:19;8.10;99.90
18047;DHT22;9148;51.454;13.862;2024-02-21T03:53:44;8.00;99.90
18047;DHT22;9148;51.454;13.862;2024-02-21T03:56:10;8.00;99.90
18047;DHT22;9148;51.454;13.862;2024-02-21T03:58:36;8.00;99.90
18047;DHT22;9148;51.454;13.862;2024-02-21T04:01:02;7.90;99.90
18047;DHT22;9148;51.454;13.862;2024-02-21T04:03:28;7.90;99.90
18047;DHT22;9148;51.454;13.862;2024-02-21T04:05:54;7.90;99.90
18047;DHT22;9148;51.454;13.862;2024-02-21T04:08:20;8.00;99.90
18047;DHT22;9148;51.454;13.862;2024-02-21T04:10:47;7.90;99.90
18047;DHT22;9148;51.454;13.862;2024-02-21T04:13:12;7.90;99.90
18047;DHT22;9148;51.454;13.862;2024-02-21T04:15:38;7.90;99.90
18047;DHT22;9148;51.454;13.862;2024-02-21T04:18:04;7.90;99.90
18047;DHT22;9148;51.454;13.862;2024-02-21T04:20:30;7.90;99.90
18047;DHT22;9148;51.454;13.862;2024-02-21T04:22:56;7.90;99.90
18047;DHT22;9148;51.454;13.862;2024-02-21T04:25:22;7.90;99.90
18047;DHT22;9148;51.454;13.862;2024-02-21T04:27:47;8.00;99.90
18047;DHT22;9148;51.454;13.862;2024-02-21T04:30:13;7.90;99.90
18047;DHT22;9148;51.454;13.862;2024-02-21T04:32:39;7.90;99.90
18047;DHT22;9148;51.454;13.862;2024-02-21T04:35:06;7.90;99.90
18047;DHT22;9148;51.454;13.862;2024-02-21T04:37:32;7.90;99.90
18047;DHT22;9148;51.454;13.862;2024-02-21T04:39:58;7.90;99.90
18047;DHT22;9148;51.454;13.862;2024-02-21T04:42:23;7.90;99.90
18047;DHT22;9148;51.454;13.862;2024-02-21T04:44:49;7.90;99.90
18047;DHT22;9148;51.454;13.862;2024-02-21T04:47:15;7.90;99.90
18047;DHT22;9148;51.454;13.862;2024-02-21T04:49:40;7.90;99.90
18047;DHT22;9148;51.454;13.862;2024-02-21T04:52:06;7.90;99.90
18047;DHT22;9148;51.454;13.862;2024-02-21T04:54:32;7.90;99.90
18047;DHT22;9148;51.454;13.862;2024-02-21T04:56:57;7.90;99.90
18047;DHT22;9148;51.454;13.862;2024-02-21T04:59:23;8.00;99.90
18047;DHT22;9148;51.454;13.862;2024-02-21T05:01:49;7.90;99.90
18047;DHT22;9148;51.454;13.862;2024-02-21T05:04:14;8.00;99.90
18047;DHT22;9148;51.454;13.862;2024-02-21T05:06:40;8.00;99.90
18047;DHT22;9148;51.454;13.862;2024-02-21T05:09:07;8.10;99.90
18047;DHT22;9148;51.454;13.862;2024-02-21T05:11:34;8.10;99.90
18047;DHT22;9148;51.454;13.862;2024-02-21T05:14:01;8.10;99.90
18047;DHT22;9148;51.454;13.862;2024-02-21T05:16:26;8.00;99.90
18047;DHT22;9148;51.454;13.862;2024-02-21T05:18:52;8.10;99.90
18047;DHT22;9148;51.454;13.862;2024-02-21T05:21:18;8.10;99.90
18047;DHT22;9148;51.454;13.862;2024-02-21T05:23:44;8.10;99.90
18047;DHT22;9148;51.454;13.862;2024-02-21T05:26:10;8.10;99.90
18047;DHT22;9148;51.454;13.862;2024-02-21T05:28:35;8.10;99.90
18047;DHT22;9148;51.454;13.862;2024-02-21T05:31:01;8.10;99.90
18047;DHT22;9148;51.454;13.862;2024-02-21T05:33:27;8.20;99.90
18047;DHT22;9148;51.454;13.862;2024-02-21T05:35:54;8.10;99.90
18047;DHT22;9148;51.454;13.862;2024-02-21T05:38:19;8.20;99.90
18047;DHT22;9148;51.454;13.862;2024-02-21T05:40:45;8.10;99.90
18047;DHT22;9148;51.454;13.862;2024-02-21T05:43:11;8.10;99.90
18047;DHT22;9148;51.454;13.862;2024-02-21T05:45:37;8.10;99.90
18047;DHT22;9148;51.454;13.862;2024-02-21T05:48:04;8.10;99.90
18047;DHT22;9148;51.454;13.862;2024-02-21T05:50:29;8.10;99.90
18047;DHT22;9148;51.454;13.862;2024-02-21T05:52:55;8.10;99.90
18047;DHT22;9148;51.454;13.862;2024-02-21T05:55:21;8.10;99.90
18047;DHT22;9148;51.454;13.862;2024-02-21T05:57:53;8.10;99.90
18047;DHT22;9148;51.454;13.862;2024-02-21T06:00:20;8.10;99.90
18047;DHT22;9148;51.454;13.862;2024-02-21T06:02:46;8.10;99.90
18047;DHT22;9148;51.454;13.862;2024-02-21T06:05:11;8.10;99.90
18047;DHT22;9148;51.454;13.862;2024-02-21T06:07:38;8.10;99.90
18047;DHT22;9148;51.454;13.862;2024-02-21T06:10:05;8.10;99.90
18047;DHT22;9148;51.454;13.862;2024-02-21T06:12:32;8.10;99.90
18047;DHT22;9148;51.454;13.862;2024-02-21T06:14:57;8.10;99.90
18047;DHT22;9148;51.454;13.862;2024-02-21T06:17:23;8.10;99.90
18047;DHT22;9148;51.454;13.862;2024-02-21T06:19:48;8.00;99.90
18047;DHT22;9148;51.454;13.862;2024-02-21T06:22:14;8.00;99.90
18047;DHT22;9148;51.454;13.862;2024-02-21T06:24:40;8.10;99.90
18047;DHT22;9148;51.454;13.862;2024-02-21T06:27:06;8.10;99.90
18047;DHT22;9148;51.454;13.862;2024-02-21T06:29:35;8.10;99.90
18047;DHT22;9148;51.454;13.862;2024-02-21T06:32:01;8.10;99.90
18047;DHT22;9148;51.454;13.862;2024-02-21T06:34:27;8.10;99.90
18047;DHT22;9148;51.454;13.862;2024-02-21T06:36:52;8.10;99.90
18047;DHT22;9148;51.454;13.862;2024-02-21T06:39:18;8.10;99.90
18047;DHT22;9148;51.454;13.862;2024-02-21T06:41:44;8.20;99.90
18047;DHT22;9148;51.454;13.862;2024-02-21T06:44:09;8.10;99.90
18047;DHT22;9148;51.454;13.862;2024-02-21T06:46:35;8.20;99.90
18047;DHT22;9148;51.454;13.862;2024-02-21T06:49:02;8.20;99.90
18047;DHT22;9148;51.454;13.862;2024-02-21T06:51:31;8.20;99.90
18047;DHT22;9148;51.454;13.862;2024-02-21T06:53:57;8.40;99.90
18047;DHT22;9148;51.454;13.862;2024-02-21T06:56:24;8.20;99.90
18047;DHT22;9148;51.454;13.862;2024-02-21T06:58:55;8.20;99.90
18047;DHT22;9148;51.454;13.862;2024-02-21T07:01:21;8.20;99.90
18047;DHT22;9148;51.454;13.862;2024-02-21T07:03:46;8.20;99.90
18047;DHT22;9148;51.454;13.862;2024-02-21T07:06:13;8.20;99.90
18047;DHT22;9148;51.454;13.862;2024-02-21T07:08:38;8.30;99.90
18047;DHT22;9148;51.454;13.862;2024-02-21T07:11:04;8.30;99.90
18047;DHT22;9148;51.454;13.862;2024-02-21T07:13:31;8.20;99.90
18047;DHT22;9148;51.454;13.862;2024-02-21T07:15:57;8.30;99.90
18047;DHT22;9148;51.454;13.862;2024-02-21T07:18:23;8.40;99.90
18047;DHT22;9148;51.454;13.862;2024-02-21T07:20:50;8.40;99.90
18047;DHT22;9148;51.454;13.862;2024-02-21T07:23:17;8.40;99.90
18047;DHT22;9148;51.454;13.862;2024-02-21T07:25:43;8.40;99.90
18047;DHT22;9148;51.454;13.862;2024-02-21T07:28:09;8.50;99.90
18047;DHT22;9148;51.454;13.862;2024-02-21T07:30:35;8.50;99.90
18047;DHT22;9148;51.454;13.862;2024-02-21T07:33:00;8.50;99.90
18047;DHT22;9148;51.454;13.862;2024-02-21T07:35:26;8.60;99.90
18047;DHT22;9148;51.454;13.862;2024-02-21T07:37:52;8.60;99.90
18047;DHT22;9148;51.454;13.862;2024-02-21T07:40:18;8.60;99.90
18047;DHT22;9148;51.454;13.862;2024-02-21T07:42:47;8.60;99.90
18047;DHT22;9148;51.454;13.862;2024-02-21T07:45:12;8.70;99.90
18047;DHT22;9148;51.454;13.862;2024-02-21T07:47:38;8.80;99.90
18047;DHT22;9148;51.454;13.862;2024-02-21T07:50:04;8.70;99.90
18047;DHT22;9148;51.454;13.862;2024-02-21T07:52:30;8.70;99.90
18047;DHT22;9148;51.454;13.862;2024-02-21T07:54:56;8.70;99.90
18047;DHT22;9148;51.454;13.862;2024-02-21T07:57:22;8.70;99.90
18047;DHT22;9148;51.454;13.862;2024-02-21T07:59:48;8.70;99.90
18047;DHT22;9148;51.454;13.862;2024-02-21T08:02:17;8.70;99.90
18047;DHT22;9148;51.454;13.862;2024-02-21T08:04:43;8.70;99.90
18047;DHT22;9148;51.454;13.862;2024-02-21T08:07:09;8.80;99.90
18047;DHT22;9148;51.454;13.862;2024-02-21T08:09:35;8.80;99.90
18047;DHT22;9148;51.454;13.862;2024-02-21T08:12:03;8.80;99.90
18047;DHT22;9148;51.454;13.862;2024-02-21T08:14:30;8.90;99.90
18047;DHT22;9148;51.454;13.862;2024-02-21T08:16:55;8.90;99.90
18047;DHT22;9148;51.454;13.862;2024-02-21T08:19:21;8.80;99.90
18047;DHT22;9148;51.454;13.862;2024-02-21T08:21:53;8.90;99.90
18047;DHT22;9148;51.454;13.862;2024-02-21T08:24:18;8.80;99.90
18047;DHT22;9148;51.454;13.862;2024-02-21T08:26:47;8.80;99.90
18047;DHT22;9148;51.454;13.862;2024-02-21T08:29:13;8.90;99.90
18047;DHT22;9148;51.454;13.862;2024-02-21T08:31:38;8.80;99.90
18047;DHT22;9148;51.454;13.862;2024-02-21T08:34:04;8.80;99.90
18047;DHT22;9148;51.454;13.862;2024-02-21T08:36:34;8.80;99.90
18047;DHT22;9148;51.454;13.862;2024-02-21T08:39:01;8.80;99.90
18047;DHT22;9148;51.454;13.862;2024-02-21T08:41:30;8.80;99.90
18047;DHT22;9148;51.454;13.862;2024-02-21T08:43:57;8.80;99.90
18047;DHT22;9148;51.454;13.862;2024-02-21T08:46:23;8.90;99.90
18047;DHT22;9148;51.454;13.862;2024-02-21T08:48:50;8.90;99.90
18047;DHT22;9148;51.454;13.862;2024-02-21T08:51:19;8.90;99.90
18047;DHT22;9148;51.454;13.862;2024-02-21T08:53:46;8.90;99.90
18047;DHT22;9148;51.454;13.862;2024-02-21T08:56:12;8.90;99.90
18047;DHT22;9148;51.454;13.862;2024-02-21T08:58:39;8.90;99.90
18047;DHT22;9148;51.454;13.862;2024-02-21T09:01:06;8.90;99.90
18047;DHT22;9148;51.454;13.862;2024-02-21T09:03:39;9.00;99.90
18047;DHT22;9148;51.454;13.862;2024-02-21T09:06:09;8.90;99.90
18047;DHT22;9148;51.454;13.862;2024-02-21T09:08:35;9.00;99.90
18047;DHT22;9148;51.454;13.862;2024-02-21T09:11:01;9.00;99.90
18047;DHT22;9148;51.454;13.862;2024-02-21T09:13:27;9.30;99.90
18047;DHT22;9148;51.454;13.862;2024-02-21T09:15:53;9.00;99.90
18047;DHT22;9148;51.454;13.862;2024-02-21T09:18:18;9.10;99.90
18047;DHT22;9148;51.454;13.862;2024-02-21T09:20:45;9.10;99.90
18047;DHT22;9148;51.454;13.862;2024-02-21T09:23:11;9.20;99.90
18047;DHT22;9148;51.454;13.862;2024-02-21T09:25:37;9.30;99.90
18047;DHT22;9148;51.454;13.862;2024-02-21T09:28:03;9.40;99.90
18047;DHT22;9148;51.454;13.862;2024-02-21T09:30:29;9.50;99.90
18047;DHT22;9148;51.454;13.862;2024-02-21T09:32:55;9.60;99.90
18047;DHT22;9148;51.454;13.862;2024-02-21T09:35:24;9.70;99.90
18047;DHT22;9148;51.454;13.862;2024-02-21T09:37:52;9.70;99.90
18047;DHT22;9148;51.454;13.862;2024-02-21T09:40:17;9.90;99.90
18047;DHT22;9148;51.454;13.862;2024-02-21T09:42:44;10.00;99.90
18047;DHT22;9148;51.454;13.862;2024-02-21T09:45:30;10.00;99.90
18047;DHT22;9148;51.454;13.862;2024-02-21T09:50:57;10.00;99.90
18047;DHT22;9148;51.454;13.862;2024-02-21T09:53:24;10.00;99.90
18047;DHT22;9148;51.454;13.862;2024-02-21T09:55:50;10.00;99.90
18047;DHT22;9148;51.454;13.862;2024-02-21T09:58:16;10.00;99.90
18047;DHT22;9148;51.454;13.862;2024-02-21T10:00:42;10.00;99.90
18047;DHT22;9148;51.454;13.862;2024-02-21T10:03:08;10.00;99.90
18047;DHT22;9148;51.454;13.862;2024-02-21T10:05:37;10.00;99.90
18047;DHT22;9148;51.454;13.862;2024-02-21T10:08:04;10.00;99.90
18047;DHT22;9148;51.454;13.862;2024-02-21T10:10:30;9.90;99.90
18047;DHT22;9148;51.454;13.862;2024-02-21T10:13:05;10.00;99.90
18047;DHT22;9148;51.454;13.862;2024-02-21T10:15:31;10.00;99.90
18047;DHT22;9148;51.454;13.862;2024-02-21T10:18:01;10.00;99.90
18047;DHT22;9148;51.454;13.862;2024-02-21T10:20:28;10.10;99.90
18047;DHT22;9148;51.454;13.862;2024-02-21T10:23:04;10.30;99.90
18047;DHT22;9148;51.454;13.862;2024-02-21T10:25:36;10.40;99.90
18047;DHT22;9148;51.454;13.862;2024-02-21T10:28:07;10.50;99.90
18047;DHT22;9148;51.454;13.862;2024-02-21T10:30:32;10.60;99.90
18047;DHT22;9148;51.454;13.862;2024-02-21T10:32:58;10.70;99.90
18047;DHT22;9148;51.454;13.862;2024-02-21T10:35:32;10.80;99.90
18047;DHT22;9148;51.454;13.862;2024-02-21T10:37:59;10.90;99.90
18047;DHT22;9148;51.454;13.862;2024-02-21T10:40:26;11.00;99.90
18047;DHT22;9148;51.454;13.862;2024-02-21T10:42:57;11.20;99.90
18047;DHT22;9148;51.454;13.862;2024-02-21T10:45:35;11.30;99.90
18047;DHT22;9148;51.454;13.862;2024-02-21T10:48:12;11.40;99.90
18047;DHT22;9148;51.454;13.862;2024-02-21T10:51:10;11.60;99.90
18047;DHT22;9148;51.454;13.862;2024-02-21T10:53:50;11.60;99.90
18047;DHT22;9148;51.454;13.862;2024-02-21T10:56:34;11.50;99.90
18047;DHT22;9148;51.454;13.862;2024-02-21T10:59:03;11.40;99.90
18047;DHT22;9148;51.454;13.862;2024-02-21T11:01:30;11.30;99.90
18047;DHT22;9148;51.454;13.862;2024-02-21T11:04:08;11.30;99.90
18047;DHT22;9148;51.454;13.862;2024-02-21T11:06:36;11.20;99.90
18047;DHT22;9148;51.454;13.862;2024-02-21T11:09:08;11.10;99.90
18047;DHT22;9148;51.454;13.862;2024-02-21T11:11:37;11.00;99.90
18047;DHT22;9148;51.454;13.862;2024-02-21T11:14:20;11.00;99.90
18047;DHT22;9148;51.454;13.862;2024-02-21T11:16:47;11.00;99.90
18047;DHT22;9148;51.454;13.862;2024-02-21T11:21:51;10.90;99.90
18047;DHT22;9148;51.454;13.862;2024-02-21T11:24:33;10.80;99.90
18047;DHT22;9148;51.454;13.862;2024-02-21T11:27:15;10.70;99.90
18047;DHT22;9148;51.454;13.862;2024-02-21T11:29:49;10.70;99.90
18047;DHT22;9148;51.454;13.862;2024-02-21T11:32:21;10.70;99.90
18047;DHT22;9148;51.454;13.862;2024-02-21T11:34:57;10.60;99.90
18047;DHT22;9148;51.454;13.862;2024-02-21T11:37:34;10.60;99.90
18047;DHT22;9148;51.454;13.862;2024-02-21T11:40:03;10.60;99.90
18047;DHT22;9148;51.454;13.862;2024-02-21T11:42:30;10.60;99.90
18047;DHT22;9148;51.454;13.862;2024-02-21T11:44:56;10.60;99.90
18047;DHT22;9148;51.454;13.862;2024-02-21T11:47:23;10.70;99.90
18047;DHT22;9148;51.454;13.862;2024-02-21T11:49:49;10.70;99.90
18047;DHT22;9148;51.454;13.862;2024-02-21T11:52:15;10.70;99.90
18047;DHT22;9148;51.454;13.862;2024-02-21T11:54:44;10.70;99.90
18047;DHT22;9148;51.454;13.862;2024-02-21T11:57:10;10.80;99.90
18047;DHT22;9148;51.454;13.862;2024-02-21T11:59:36;10.80;99.90
18047;DHT22;9148;51.454;13.862;2024-02-21T12:02:02;10.80;99.90
18047;DHT22;9148;51.454;13.862;2024-02-21T12:04:29;10.80;99.90
18047;DHT22;9148;51.454;13.862;2024-02-21T12:06:58;11.00;99.90
18047;DHT22;9148;51.454;13.862;2024-02-21T12:09:25;11.10;99.90
18047;DHT22;9148;51.454;13.862;2024-02-21T12:12:04;11.10;99.90
18047;DHT22;9148;51.454;13.862;2024-02-21T12:14:32;11.30;99.90
18047;DHT22;9148;51.454;13.862;2024-02-21T12:17:00;11.20;99.90
18047;DHT22;9148;51.454;13.862;2024-02-21T12:19:29;11.30;99.90
18047;DHT22;9148;51.454;13.862;2024-02-21T12:21:55;11.30;99.90
18047;DHT22;9148;51.454;13.862;2024-02-21T12:24:24;11.30;99.90
18047;DHT22;9148;51.454;13.862;2024-02-21T12:26:55;11.30;99.90
18047;DHT22;9148;51.454;13.862;2024-02-21T12:29:22;11.30;99.90
18047;DHT22;9148;51.454;13.862;2024-02-21T12:31:50;11.30;99.90
18047;DHT22;9148;51.454;13.862;2024-02-21T12:34:16;11.30;99.90
18047;DHT22;9148;51.454;13.862;2024-02-21T12:36:45;11.30;99.90
18047;DHT22;9148;51.454;13.862;2024-02-21T12:39:14;11.30;99.90
18047;DHT22;9148;51.454;13.862;2024-02-21T12:41:41;11.30;99.90
18047;DHT22;9148;51.454;13.862;2024-02-21T12:44:10;11.40;99.90
18047;DHT22;9148;51.454;13.862;2024-02-21T12:46:39;11.60;99.90
18047;DHT22;9148;51.454;13.862;2024-02-21T12:49:07;11.90;99.90
18047;DHT22;9148;51.454;13.862;2024-02-21T12:51:34;12.00;99.90
18047;DHT22;9148;51.454;13.862;2024-02-21T12:54:00;12.30;99.90
18047;DHT22;9148;51.454;13.862;2024-02-21T12:56:26;12.60;99.90
18047;DHT22;9148;51.454;13.862;2024-02-21T12:58:56;12.80;99.90
18047;DHT22;9148;51.454;13.862;2024-02-21T13:01:22;13.10;99.90
18047;DHT22;9148;51.454;13.862;2024-02-21T13:03:48;13.30;99.90
18047;DHT22;9148;51.454;13.862;2024-02-21T13:06:14;13.30;99.90
18047;DHT22;9148;51.454;13.862;2024-02-21T13:08:40;13.10;99.80
18047;DHT22;9148;51.454;13.862;2024-02-21T13:11:06;13.00;99.90
18047;DHT22;9148;51.454;13.862;2024-02-21T13:13:32;12.90;99.90
18047;DHT22;9148;51.454;13.862;2024-02-21T13:15:58;12.90;99.90
18047;DHT22;9148;51.454;13.862;2024-02-21T13:18:24;12.90;99.80
18047;DHT22;9148;51.454;13.862;2024-02-21T13:20:50;12.70;99.50
18047;DHT22;9148;51.454;13.862;2024-02-21T13:23:15;12.60;99.70
18047;DHT22;9148;51.454;13.862;2024-02-21T13:25:41;12.40;99.80
18047;DHT22;9148;51.454;13.862;2024-02-21T13:28:07;12.40;99.90
18047;DHT22;9148;51.454;13.862;2024-02-21T13:30:34;12.40;99.90
18047;DHT22;9148;51.454;13.862;2024-02-21T13:32:59;12.50;99.90
18047;DHT22;9148;51.454;13.862;2024-02-21T13:35:25;12.60;99.90
18047;DHT22;9148;51.454;13.862;2024-02-21T13:37:51;12.50;99.80
18047;DHT22;9148;51.454;13.862;2024-02-21T13:40:16;12.30;99.90
18047;DHT22;9148;51.454;13.862;2024-02-21T13:42:42;12.20;99.90
18047;DHT22;9148;51.454;13.862;2024-02-21T13:45:09;12.20;99.90
18047;DHT22;9148;51.454;13.862;2024-02-21T13:47:34;12.20;99.90
18047;DHT22;9148;51.454;13.862;2024-02-21T13:50:02;12.10;99.90
18047;DHT22;9148;51.454;13.862;2024-02-21T13:52:30;12.00;99.90
18047;DHT22;9148;51.454;13.862;2024-02-21T13:54:56;11.90;99.90
18047;DHT22;9148;51.454;13.862;2024-02-21T13:57:22;11.90;99.90
18047;DHT22;9148;51.454;13.862;2024-02-21T13:59:48;11.90;99.90
18047;DHT22;9148;51.454;13.862;2024-02-21T14:02:14;11.80;99.90
18047;DHT22;9148;51.454;13.862;2024-02-21T14:04:40;11.80;99.90
18047;DHT22;9148;51.454;13.862;2024-02-21T14:07:05;11.80;99.90
18047;DHT22;9148;51.454;13.862;2024-02-21T14:09:31;11.80;99.90
18047;DHT22;9148;51.454;13.862;2024-02-21T14:11:58;11.80;99.90
18047;DHT22;9148;51.454;13.862;2024-02-21T14:14:24;11.90;99.90
18047;DHT22;9148;51.454;13.862;2024-02-21T14:16:50;12.00;99.90
18047;DHT22;9148;51.454;13.862;2024-02-21T14:19:15;12.00;99.90
18047;DHT22;9148;51.454;13.862;2024-02-21T14:21:42;12.00;99.90
18047;DHT22;9148;51.454;13.862;2024-02-21T14:24:07;12.10;99.90
18047;DHT22;9148;51.454;13.862;2024-02-21T14:26:33;12.00;99.90
18047;DHT22;9148;51.454;13.862;2024-02-21T14:29:01;12.00;99.90
18047;DHT22;9148;51.454;13.862;2024-02-21T14:31:31;12.00;99.90
18047;DHT22;9148;51.454;13.862;2024-02-21T14:33:57;11.90;99.90
18047;DHT22;9148;51.454;13.862;2024-02-21T14:36:22;11.90;99.90
18047;DHT22;9148;51.454;13.862;2024-02-21T14:38:49;11.90;99.90
18047;DHT22;9148;51.454;13.862;2024-02-21T14:41:15;11.90;99.90
18047;DHT22;9148;51.454;13.862;2024-02-21T14:43:40;11.90;99.90
18047;DHT22;9148;51.454;13.862;2024-02-21T14:46:06;11.90;99.90
18047;DHT22;9148;51.454;13.862;2024-02-21T14:48:32;11.90;99.90
18047;DHT22;9148;51.454;13.862;2024-02-21T14:50:58;11.90;99.90
18047;DHT22;9148;51.454;13.862;2024-02-21T14:53:24;11.90;99.90
18047;DHT22;9148;51.454;13.862;2024-02-21T14:55:50;11.90;99.90
18047;DHT22;9148;51.454;13.862;2024-02-21T14:58:19;11.90;99.90
18047;DHT22;9148;51.454;13.862;2024-02-21T15:00:45;11.90;99.90
18047;DHT22;9148;51.454;13.862;2024-02-21T15:03:12;11.90;99.90
18047;DHT22;9148;51.454;13.862;2024-02-21T15:05:41;11.80;99.90
18047;DHT22;9148;51.454;13.862;2024-02-21T15:08:07;11.80;99.90
18047;DHT22;9148;51.454;13.862;2024-02-21T15:10:34;11.70;99.90
18047;DHT22;9148;51.454;13.862;2024-02-21T15:13:00;11.90;99.90
18047;DHT22;9148;51.454;13.862;2024-02-21T15:15:26;11.70;99.90
18047;DHT22;9148;51.454;13.862;2024-02-21T15:17:51;11.80;99.90
18047;DHT22;9148;51.454;13.862;2024-02-21T15:20:17;11.80;99.90
18047;DHT22;9148;51.454;13.862;2024-02-21T15:22:42;11.70;99.90
18047;DHT22;9148;51.454;13.862;2024-02-21T15:25:09;11.80;99.90
18047;DHT22;9148;51.454;13.862;2024-02-21T15:27:43;11.80;99.90
18047;DHT22;9148;51.454;13.862;2024-02-21T15:30:13;11.80;99.90
18047;DHT22;9148;51.454;13.862;2024-02-21T15:32:40;11.70;99.90
18047;DHT22;9148;51.454;13.862;2024-02-21T15:35:09;11.70;99.90
18047;DHT22;9148;51.454;13.862;2024-02-21T15:37:35;11.60;99.90
18047;DHT22;9148;51.454;13.862;2024-02-21T15:40:01;11.60;99.90
18047;DHT22;9148;51.454;13.862;2024-02-21T15:42:28;11.50;99.90
18047;DHT22;9148;51.454;13.862;2024-02-21T15:44:56;11.40;99.90
18047;DHT22;9148;51.454;13.862;2024-02-21T15:47:21;11.30;99.90